Time;durP1;ratioP1;P1;durP2;ratioP2;P2;SDS_P1;SDS_P2;PMS_P1;PMS_P2;Temp;Humidity;BMP_temperature;BMP_pressure;BME280_temperature;BME280_humidity;BME280_pressure;Samples;Min_cycle;Max_cycle;Signal;HPM_P1;HPM_P2
2023/06/26 00:01:43;;;;;;;35.15;18.42;;;;;;;;;;4997509;28;20236;-78
2023/06/26 00:04:14;;;;;;;27.17;17.13;;;;;;;;;;4993301;28;20223;-75
2023/06/26 00:06:39;;;;;;;29.20;17.48;;;;;;;;;;4994920;28;20234;-76
2023/06/26 00:09:04;;;;;;;27.02;16.88;;;;;;;;;;5000895;28;20222;-76
2023/06/26 00:11:33;;;;;;;31.17;17.00;;;;;;;;;;4977751;28;20820;-77
2023/06/26 00:14:00;;;;;;;27.75;16.67;;;;;;;;;;4993718;28;20305;-79
2023/06/26 00:16:25;;;;;;;26.15;16.60;;;;;;;;;;4993671;28;20234;-77
2023/06/26 00:18:50;;;;;;;27.45;16.17;;;;;;;;;;4994535;28;20224;-76
2023/06/26 00:21:15;;;;;;;25.58;16.13;;;;;;;;;;4996916;28;20246;-77
2023/06/26 00:23:41;;;;;;;23.88;15.55;;;;;;;;;;4980754;28;20325;-79
2023/06/26 00:26:06;;;;;;;28.40;15.68;;;;;;;;;;4996962;28;20234;-77
2023/06/26 00:28:31;;;;;;;27.40;15.52;;;;;;;;;;5016156;28;20233;-76
2023/06/26 00:30:57;;;;;;;24.10;15.15;;;;;;;;;;5015197;28;20714;-76
2023/06/26 00:33:22;;;;;;;21.95;14.57;;;;;;;;;;4999399;28;20272;-76
2023/06/26 00:35:47;;;;;;;22.25;14.43;;;;;;;;;;5019221;28;20228;-77
2023/06/26 00:38:13;;;;;;;24.00;14.65;;;;;;;;;;5017362;28;20253;-77
2023/06/26 00:40:38;;;;;;;23.95;14.70;;;;;;;;;;4997936;28;20234;-76
2023/06/26 00:43:03;;;;;;;23.27;14.32;;;;;;;;;;5013702;28;20742;-77
2023/06/26 00:45:28;;;;;;;25.95;14.95;;;;;;;;;;5015974;28;20237;-80
2023/06/26 00:47:54;;;;;;;24.73;14.43;;;;;;;;;;5009910;28;20627;-76
2023/06/26 00:50:20;;;;;;;24.85;14.48;;;;;;;;;;4999185;28;20209;-78
2023/06/26 00:52:45;;;;;;;22.63;13.65;;;;;;;;;;5029083;28;20229;-78
2023/06/26 00:55:10;;;;;;;21.52;14.10;;;;;;;;;;5013953;28;20205;-76
2023/06/26 00:57:35;;;;;;;23.02;13.43;;;;;;;;;;5013228;28;20226;-80
2023/06/26 01:00:01;;;;;;;20.45;13.73;;;;;;;;;;5013341;28;20285;-79
2023/06/26 01:02:33;;;;;;;24.90;14.75;;;;;;;;;;5022111;28;20256;-77
2023/06/26 01:04:58;;;;;;;23.33;13.90;;;;;;;;;;5002875;28;20220;-78
2023/06/26 01:07:23;;;;;;;23.15;13.60;;;;;;;;;;5016103;28;20222;-78
2023/06/26 01:09:51;;;;;;;19.88;13.35;;;;;;;;;;5003533;28;20598;-77
2023/06/26 01:12:17;;;;;;;21.05;13.32;;;;;;;;;;4997811;28;20241;-77
2023/06/26 01:14:42;;;;;;;21.95;13.35;;;;;;;;;;5001923;28;20296;-77
2023/06/26 01:17:07;;;;;;;23.55;13.25;;;;;;;;;;5035089;28;20221;-78
2023/06/26 01:19:33;;;;;;;22.13;13.02;;;;;;;;;;5011887;28;20277;-77
2023/06/26 01:22:14;;;;;;;21.30;12.82;;;;;;;;;;5033944;28;20632;-76
2023/06/26 01:24:39;;;;;;;19.05;12.85;;;;;;;;;;5033891;28;20308;-76
2023/06/26 01:27:04;;;;;;;20.75;13.30;;;;;;;;;;5015761;28;20321;-81
2023/06/26 01:29:30;;;;;;;18.83;12.70;;;;;;;;;;5011564;28;20226;-76
2023/06/26 01:31:55;;;;;;;19.65;12.20;;;;;;;;;;5016244;28;20248;-77
2023/06/26 01:34:21;;;;;;;19.00;12.18;;;;;;;;;;5018311;28;20244;-77
2023/06/26 01:36:46;;;;;;;17.92;12.50;;;;;;;;;;5017727;28;20230;-77
2023/06/26 01:39:14;;;;;;;17.42;12.13;;;;;;;;;;5014804;28;20305;-77
2023/06/26 01:41:42;;;;;;;17.80;11.98;;;;;;;;;;5033093;28;20233;-77
2023/06/26 01:44:08;;;;;;;20.15;12.50;;;;;;;;;;5029503;28;20703;-76
2023/06/26 01:46:33;;;;;;;20.73;12.70;;;;;;;;;;5017252;28;20225;-76
2023/06/26 01:49:03;;;;;;;18.95;12.38;;;;;;;;;;5016671;28;20222;-76
2023/06/26 01:51:39;;;;;;;17.80;12.45;;;;;;;;;;5005498;28;20210;-76
2023/06/26 01:54:05;;;;;;;20.30;12.77;;;;;;;;;;5001024;28;20221;-76
2023/06/26 01:56:30;;;;;;;20.77;12.98;;;;;;;;;;5016063;28;20661;-77
2023/06/26 01:58:56;;;;;;;17.27;12.00;;;;;;;;;;5018332;28;20234;-76
2023/06/26 02:01:22;;;;;;;17.20;12.15;;;;;;;;;;5018084;28;20341;-77
2023/06/26 02:03:47;;;;;;;19.73;12.88;;;;;;;;;;5014981;28;20313;-80
2023/06/26 02:06:12;;;;;;;21.05;12.75;;;;;;;;;;5011645;28;20286;-77
2023/06/26 02:08:38;;;;;;;19.08;12.80;;;;;;;;;;5014642;28;20234;-77
2023/06/26 02:11:03;;;;;;;18.85;12.40;;;;;;;;;;5016760;28;20213;-76
2023/06/26 02:13:28;;;;;;;18.30;12.75;;;;;;;;;;5017145;28;20233;-75
2023/06/26 02:15:53;;;;;;;18.95;12.68;;;;;;;;;;5012847;28;20218;-76
2023/06/26 02:18:21;;;;;;;19.55;12.55;;;;;;;;;;5014978;28;20224;-78
2023/06/26 02:20:46;;;;;;;18.77;13.10;;;;;;;;;;5030443;28;20996;-76
2023/06/26 02:23:12;;;;;;;21.02;13.00;;;;;;;;;;5031209;28;20290;-77
2023/06/26 02:25:37;;;;;;;20.83;12.88;;;;;;;;;;5032699;28;20230;-77
2023/06/26 02:28:03;;;;;;;18.55;12.80;;;;;;;;;;5014921;28;20785;-77
2023/06/26 02:30:28;;;;;;;18.48;13.05;;;;;;;;;;4997527;28;20614;-77
2023/06/26 02:32:53;;;;;;;18.53;13.20;;;;;;;;;;5015337;28;20256;-78
2023/06/26 02:35:19;;;;;;;20.80;12.77;;;;;;;;;;5019089;28;20233;-77
2023/06/26 02:37:44;;;;;;;21.87;14.20;;;;;;;;;;5038588;28;20392;-75
2023/06/26 02:40:10;;;;;;;21.05;13.88;;;;;;;;;;5021669;28;20221;-77
2023/06/26 02:42:35;;;;;;;24.20;14.40;;;;;;;;;;5004388;28;20701;-77
2023/06/26 02:45:00;;;;;;;19.83;14.00;;;;;;;;;;4999644;28;20279;-71
2023/06/26 02:47:26;;;;;;;20.48;14.07;;;;;;;;;;5002944;28;20274;-70
2023/06/26 02:49:51;;;;;;;24.30;15.02;;;;;;;;;;5039890;28;20217;-71
2023/06/26 02:52:16;;;;;;;25.33;15.60;;;;;;;;;;5018068;28;20794;-70
2023/06/26 02:54:41;;;;;;;25.92;15.75;;;;;;;;;;5032866;28;20682;-77
2023/06/26 02:57:07;;;;;;;25.30;16.23;;;;;;;;;;5035963;28;20274;-77
2023/06/26 02:59:32;;;;;;;26.15;16.35;;;;;;;;;;5002165;28;21001;-76
2023/06/26 03:01:57;;;;;;;23.02;16.15;;;;;;;;;;4998994;28;20283;-76
2023/06/26 03:04:22;;;;;;;23.83;16.50;;;;;;;;;;5021081;28;20222;-79
2023/06/26 03:06:48;;;;;;;24.80;16.35;;;;;;;;;;5014703;28;20229;-77
2023/06/26 03:09:13;;;;;;;24.63;17.25;;;;;;;;;;5016236;28;20235;-76
2023/06/26 03:11:38;;;;;;;25.27;16.52;;;;;;;;;;5018551;28;20681;-77
2023/06/26 03:14:03;;;;;;;25.52;16.52;;;;;;;;;;5015419;28;20222;-79
2023/06/26 03:16:29;;;;;;;25.75;16.60;;;;;;;;;;5016416;28;20266;-77
2023/06/26 03:18:54;;;;;;;26.05;17.27;;;;;;;;;;5003063;28;20239;-77
2023/06/26 03:21:19;;;;;;;24.85;17.27;;;;;;;;;;5001180;28;20233;-78
2023/06/26 03:23:45;;;;;;;24.75;17.58;;;;;;;;;;5016642;28;20226;-76
2023/06/26 03:26:10;;;;;;;27.10;16.85;;;;;;;;;;5018057;28;20214;-77
2023/06/26 03:28:35;;;;;;;29.08;17.92;;;;;;;;;;5015963;28;20242;-78
2023/06/26 03:31:00;;;;;;;27.52;17.60;;;;;;;;;;5024311;28;20285;-77
2023/06/26 03:33:26;;;;;;;27.75;17.42;;;;;;;;;;5020817;28;20214;-76
2023/06/26 03:35:51;;;;;;;26.40;17.52;;;;;;;;;;5016640;28;20268;-75
2023/06/26 03:38:16;;;;;;;27.85;18.23;;;;;;;;;;5018096;28;20241;-77
2023/06/26 03:40:42;;;;;;;26.13;17.25;;;;;;;;;;5016235;28;20240;-78
2023/06/26 03:43:07;;;;;;;26.38;17.50;;;;;;;;;;5015275;28;20287;-79
2023/06/26 03:45:32;;;;;;;26.80;17.23;;;;;;;;;;5002078;28;20230;-77
2023/06/26 03:47:57;;;;;;;27.02;18.52;;;;;;;;;;5017658;28;20557;-76
2023/06/26 03:50:23;;;;;;;26.35;18.23;;;;;;;;;;5012559;28;20226;-78
2023/06/26 03:52:50;;;;;;;25.77;17.77;;;;;;;;;;4992899;28;20225;-77
2023/06/26 03:55:15;;;;;;;27.60;18.40;;;;;;;;;;5017676;28;20214;-77
2023/06/26 03:57:41;;;;;;;27.35;17.98;;;;;;;;;;5017546;28;20228;-78
2023/06/26 04:00:08;;;;;;;25.53;17.93;;;;;;;;;;5022392;28;20221;-78
2023/06/26 04:02:33;;;;;;;28.17;18.13;;;;;;;;;;5014305;28;20291;-71
2023/06/26 04:05:00;;;;;;;26.25;17.88;;;;;;;;;;5000518;28;20214;-70
2023/06/26 04:07:25;;;;;;;29.08;17.98;;;;;;;;;;5029614;28;20279;-70
2023/06/26 04:09:50;;;;;;;27.50;18.27;;;;;;;;;;5015537;28;20898;-72
2023/06/26 04:12:16;;;;;;;28.90;18.40;;;;;;;;;;5013192;28;20234;-70
2023/06/26 04:14:41;;;;;;;25.65;17.73;;;;;;;;;;4996310;28;20226;-70
2023/06/26 04:17:06;;;;;;;27.00;17.92;;;;;;;;;;5012814;28;20222;-70
2023/06/26 04:19:32;;;;;;;29.02;18.15;;;;;;;;;;5013595;28;20233;-72
2023/06/26 04:22:00;;;;;;;26.13;17.33;;;;;;;;;;5011770;28;20312;-71
2023/06/26 04:24:25;;;;;;;25.08;17.65;;;;;;;;;;5002371;28;20276;-71
2023/06/26 04:26:50;;;;;;;25.63;17.70;;;;;;;;;;5010659;28;20931;-70
2023/06/26 04:29:16;;;;;;;28.20;17.85;;;;;;;;;;5031517;28;20316;-71
2023/06/26 04:31:41;;;;;;;25.92;17.95;;;;;;;;;;5030580;28;20225;-71
2023/06/26 04:34:06;;;;;;;27.67;17.73;;;;;;;;;;5034282;28;20304;-69
2023/06/26 04:36:33;;;;;;;26.03;17.37;;;;;;;;;;5039749;28;20678;-71
2023/06/26 04:38:58;;;;;;;29.00;17.92;;;;;;;;;;5029481;28;20225;-71
2023/06/26 04:41:23;;;;;;;24.17;17.25;;;;;;;;;;5040970;28;20807;-70
2023/06/26 04:43:50;;;;;;;27.00;17.43;;;;;;;;;;5019433;28;20236;-71
2023/06/26 04:46:15;;;;;;;25.03;16.60;;;;;;;;;;5032428;28;20218;-70
2023/06/26 04:48:41;;;;;;;27.77;17.98;;;;;;;;;;5028967;28;20236;-70
2023/06/26 04:51:06;;;;;;;24.33;17.30;;;;;;;;;;5032008;28;20229;-70
2023/06/26 04:53:32;;;;;;;24.20;16.90;;;;;;;;;;5031656;28;20732;-70
2023/06/26 04:55:57;;;;;;;30.90;18.27;;;;;;;;;;5015785;28;20241;-71
2023/06/26 04:58:22;;;;;;;25.63;17.48;;;;;;;;;;5032842;28;20276;-71
2023/06/26 05:00:48;;;;;;;25.58;17.05;;;;;;;;;;5029003;28;20746;-70
2023/06/26 05:03:13;;;;;;;23.83;17.20;;;;;;;;;;5030757;28;20222;-71
2023/06/26 05:05:38;;;;;;;26.53;16.70;;;;;;;;;;5028278;28;20225;-71
2023/06/26 05:08:36;;;;;;;25.02;17.55;;;;;;;;;;5032924;28;20226;-72
2023/06/26 05:11:02;;;;;;;25.83;17.85;;;;;;;;;;5003938;28;20214;-72
2023/06/26 05:13:27;;;;;;;24.73;17.40;;;;;;;;;;5034201;28;20232;-71
2023/06/26 05:15:53;;;;;;;27.40;18.08;;;;;;;;;;5031848;28;20222;-72
2023/06/26 05:18:18;;;;;;;26.17;17.17;;;;;;;;;;5031056;28;20733;-72
2023/06/26 05:20:44;;;;;;;27.85;17.48;;;;;;;;;;5030917;28;20257;-73
2023/06/26 05:23:10;;;;;;;24.20;16.67;;;;;;;;;;5023301;28;20224;-72
2023/06/26 05:25:36;;;;;;;23.88;16.35;;;;;;;;;;5027511;28;20221;-72
2023/06/26 05:28:01;;;;;;;28.17;16.77;;;;;;;;;;5031660;28;20230;-72
2023/06/26 05:30:27;;;;;;;25.60;17.67;;;;;;;;;;5024291;28;20708;-72
2023/06/26 05:32:53;;;;;;;22.65;16.20;;;;;;;;;;4999589;28;20710;-71
2023/06/26 05:35:19;;;;;;;25.30;16.67;;;;;;;;;;5011891;28;20282;-72
2023/06/26 05:37:44;;;;;;;22.30;16.27;;;;;;;;;;5015201;28;21102;-71
2023/06/26 05:40:10;;;;;;;23.80;16.13;;;;;;;;;;5015301;28;20229;-72
2023/06/26 05:42:36;;;;;;;24.80;17.20;;;;;;;;;;5031821;28;20272;-72
2023/06/26 05:45:01;;;;;;;23.48;16.30;;;;;;;;;;5014386;28;20672;-72
2023/06/26 05:47:26;;;;;;;22.08;16.55;;;;;;;;;;5033487;28;20252;-73
2023/06/26 05:49:51;;;;;;;25.23;15.38;;;;;;;;;;5033021;28;20217;-72
2023/06/26 05:52:17;;;;;;;23.30;15.77;;;;;;;;;;5009042;28;20225;-72
2023/06/26 05:54:43;;;;;;;22.25;15.48;;;;;;;;;;5029306;28;20217;-75
2023/06/26 05:57:08;;;;;;;23.00;16.00;;;;;;;;;;5023213;28;20259;-73
2023/06/26 05:59:33;;;;;;;23.33;16.02;;;;;;;;;;5015591;28;20272;-71
2023/06/26 06:01:58;;;;;;;23.45;16.40;;;;;;;;;;5013909;28;20248;-78
2023/06/26 06:04:24;;;;;;;25.10;16.10;;;;;;;;;;5034793;28;20267;-79
2023/06/26 06:06:49;;;;;;;23.80;16.50;;;;;;;;;;5016077;28;20282;-80
2023/06/26 06:09:14;;;;;;;23.63;15.90;;;;;;;;;;5020829;28;20663;-77
2023/06/26 06:11:40;;;;;;;22.67;15.65;;;;;;;;;;5018004;28;20280;-78
2023/06/26 06:14:05;;;;;;;21.98;14.88;;;;;;;;;;5018562;28;20226;-76
2023/06/26 06:16:30;;;;;;;24.55;15.65;;;;;;;;;;5037444;28;20241;-77
2023/06/26 06:18:56;;;;;;;23.35;15.80;;;;;;;;;;5037721;28;20261;-78
2023/06/26 06:21:21;;;;;;;23.23;15.98;;;;;;;;;;5016787;28;20236;-78
2023/06/26 06:23:46;;;;;;;24.45;15.23;;;;;;;;;;5027538;28;20221;-76
2023/06/26 06:26:12;;;;;;;26.30;15.07;;;;;;;;;;5018090;28;20255;-79
2023/06/26 06:28:37;;;;;;;25.63;15.20;;;;;;;;;;5031333;28;20238;-75
2023/06/26 06:31:03;;;;;;;27.05;15.10;;;;;;;;;;5014458;28;20284;-77
2023/06/26 06:33:28;;;;;;;23.38;15.07;;;;;;;;;;5015784;28;20217;-78
2023/06/26 06:35:53;;;;;;;23.90;15.68;;;;;;;;;;5016489;28;20264;-76
2023/06/26 06:38:19;;;;;;;25.63;14.88;;;;;;;;;;5030817;28;20755;-76
2023/06/26 06:40:44;;;;;;;20.08;14.55;;;;;;;;;;5014731;28;20351;-77
2023/06/26 06:43:09;;;;;;;20.33;14.40;;;;;;;;;;4987846;28;20219;-77
2023/06/26 06:45:35;;;;;;;19.23;13.50;;;;;;;;;;5017794;28;20300;-77
2023/06/26 06:48:00;;;;;;;20.65;13.68;;;;;;;;;;5017582;28;20222;-77
2023/06/26 06:50:25;;;;;;;20.02;13.88;;;;;;;;;;5034603;28;20217;-76
2023/06/26 06:52:50;;;;;;;22.08;14.50;;;;;;;;;;5011026;28;20218;-75
2023/06/26 06:55:16;;;;;;;18.75;13.10;;;;;;;;;;5013513;28;20223;-77
2023/06/26 06:57:41;;;;;;;16.65;12.32;;;;;;;;;;5003866;28;20246;-79
2023/06/26 07:00:09;;;;;;;17.45;12.20;;;;;;;;;;5011551;28;20221;-77
2023/06/26 07:02:35;;;;;;;16.38;11.77;;;;;;;;;;5010779;28;20310;-75
2023/06/26 07:05:01;;;;;;;17.33;11.45;;;;;;;;;;5005782;28;20233;-79
2023/06/26 07:07:28;;;;;;;15.93;11.55;;;;;;;;;;5005834;28;20233;-78
2023/06/26 07:09:53;;;;;;;14.77;11.63;;;;;;;;;;5007675;28;20684;-77
2023/06/26 07:12:18;;;;;;;18.80;11.75;;;;;;;;;;5017047;28;20246;-75
2023/06/26 07:14:44;;;;;;;16.58;11.30;;;;;;;;;;5004384;28;21278;-76
2023/06/26 07:17:09;;;;;;;15.73;11.07;;;;;;;;;;5018883;28;20772;-78
2023/06/26 07:19:34;;;;;;;15.32;10.73;;;;;;;;;;5013124;28;20305;-79
2023/06/26 07:21:59;;;;;;;17.90;11.02;;;;;;;;;;5025037;28;20222;-77
2023/06/26 07:24:25;;;;;;;13.98;9.00;;;;;;;;;;5018135;28;20230;-76
2023/06/26 07:26:50;;;;;;;13.18;9.48;;;;;;;;;;5018127;28;20273;-78
2023/06/26 07:29:15;;;;;;;12.70;9.45;;;;;;;;;;4996084;28;20235;-76
2023/06/26 07:31:41;;;;;;;15.00;10.55;;;;;;;;;;4993045;28;20227;-70
2023/06/26 07:34:06;;;;;;;14.50;9.88;;;;;;;;;;4997569;28;20245;-72
2023/06/26 07:36:31;;;;;;;15.60;9.90;;;;;;;;;;4993432;28;20261;-72
2023/06/26 07:38:56;;;;;;;12.90;9.30;;;;;;;;;;4983961;28;20227;-71
2023/06/26 07:41:22;;;;;;;12.50;8.68;;;;;;;;;;4998020;28;20350;-71
2023/06/26 07:43:47;;;;;;;12.85;8.65;;;;;;;;;;4998487;28;21439;-71
2023/06/26 07:46:12;;;;;;;11.60;8.20;;;;;;;;;;4991705;28;20744;-71
2023/06/26 07:48:38;;;;;;;16.67;8.80;;;;;;;;;;4993288;28;20235;-71
2023/06/26 07:51:03;;;;;;;12.70;9.32;;;;;;;;;;4994184;28;20673;-72
2023/06/26 07:53:28;;;;;;;10.95;8.40;;;;;;;;;;4991387;28;20230;-73
2023/06/26 07:55:53;;;;;;;8.82;6.97;;;;;;;;;;4984807;28;20306;-71
2023/06/26 07:58:19;;;;;;;11.43;7.63;;;;;;;;;;4985485;28;20227;-70
2023/06/26 08:00:44;;;;;;;14.70;8.05;;;;;;;;;;4980780;28;20250;-71
2023/06/26 08:03:09;;;;;;;14.95;8.82;;;;;;;;;;4979433;28;20219;-71
2023/06/26 08:05:35;;;;;;;11.85;8.30;;;;;;;;;;4977918;28;20912;-72
2023/06/26 08:08:01;;;;;;;13.80;8.25;;;;;;;;;;4998667;28;20227;-71
2023/06/26 08:10:27;;;;;;;12.20;8.40;;;;;;;;;;4987727;28;20730;-71
2023/06/26 08:12:52;;;;;;;12.52;8.32;;;;;;;;;;4991381;28;20223;-73
2023/06/26 08:15:18;;;;;;;10.90;7.85;;;;;;;;;;4992720;28;20219;-72
2023/06/26 08:17:43;;;;;;;15.48;8.70;;;;;;;;;;4973111;28;20262;-72
2023/06/26 08:20:09;;;;;;;17.02;9.20;;;;;;;;;;4993043;28;20226;-71
2023/06/26 08:22:34;;;;;;;13.60;9.18;;;;;;;;;;4995340;28;20278;-72
2023/06/26 08:24:59;;;;;;;13.68;8.93;;;;;;;;;;4991921;28;20223;-71
2023/06/26 08:27:25;;;;;;;15.65;9.27;;;;;;;;;;5014269;28;20233;-71
2023/06/26 08:29:50;;;;;;;14.68;8.82;;;;;;;;;;4984058;28;20256;-74
2023/06/26 08:32:15;;;;;;;13.73;8.25;;;;;;;;;;5030820;28;20218;-72
2023/06/26 08:34:40;;;;;;;12.85;8.50;;;;;;;;;;5010982;28;20230;-72
2023/06/26 08:37:08;;;;;;;12.80;8.65;;;;;;;;;;5021270;28;20302;-72
2023/06/26 08:39:34;;;;;;;10.48;7.43;;;;;;;;;;5002034;28;21301;-71
2023/06/26 08:41:59;;;;;;;10.80;7.80;;;;;;;;;;5016189;28;20252;-71
2023/06/26 08:44:24;;;;;;;10.65;7.32;;;;;;;;;;5016671;28;20218;-72
2023/06/26 08:46:51;;;;;;;10.10;7.70;;;;;;;;;;5009607;28;20238;-72
2023/06/26 08:49:25;;;;;;;10.85;7.80;;;;;;;;;;5031566;28;20244;-72
2023/06/26 08:51:57;;;;;;;11.27;7.70;;;;;;;;;;5015912;28;20234;-71
2023/06/26 08:54:28;;;;;;;11.73;8.13;;;;;;;;;;5018117;28;20694;-72
2023/06/26 08:56:53;;;;;;;10.25;7.60;;;;;;;;;;5014425;28;20268;-72
2023/06/26 08:59:19;;;;;;;10.15;7.32;;;;;;;;;;5005339;28;20249;-73
2023/06/26 09:01:44;;;;;;;12.77;7.35;;;;;;;;;;5016181;28;20234;-72
2023/06/26 09:04:09;;;;;;;11.63;7.47;;;;;;;;;;4998356;28;20218;-73
2023/06/26 09:06:35;;;;;;;10.15;7.68;;;;;;;;;;5011190;28;20726;-71
2023/06/26 09:09:00;;;;;;;10.82;7.35;;;;;;;;;;4999928;28;20304;-72
2023/06/26 09:11:26;;;;;;;13.82;7.63;;;;;;;;;;5027917;28;20226;-74
2023/06/26 09:13:51;;;;;;;11.65;7.47;;;;;;;;;;5033647;28;20225;-73
2023/06/26 09:16:17;;;;;;;9.82;7.00;;;;;;;;;;4999337;28;20226;-71
2023/06/26 09:18:42;;;;;;;13.93;7.88;;;;;;;;;;5006146;28;20243;-72
2023/06/26 09:21:08;;;;;;;12.77;7.22;;;;;;;;;;5002037;28;20226;-72
2023/06/26 09:23:33;;;;;;;11.60;7.10;;;;;;;;;;5017627;28;20245;-72
2023/06/26 09:25:58;;;;;;;10.60;6.43;;;;;;;;;;5007404;28;20226;-71
2023/06/26 09:28:24;;;;;;;11.32;7.07;;;;;;;;;;5024038;28;20727;-72
2023/06/26 09:30:50;;;;;;;9.50;7.00;;;;;;;;;;5024050;28;20218;-72
2023/06/26 09:33:16;;;;;;;12.32;7.30;;;;;;;;;;5028719;28;20214;-73
2023/06/26 09:35:42;;;;;;;11.50;6.60;;;;;;;;;;5030883;28;20703;-71
2023/06/26 09:38:08;;;;;;;9.73;7.13;;;;;;;;;;5031736;28;20223;-72
2023/06/26 09:40:35;;;;;;;12.20;6.60;;;;;;;;;;5013850;28;20303;-72
2023/06/26 09:43:10;;;;;;;10.77;6.93;;;;;;;;;;5035083;28;20223;-71
2023/06/26 09:45:38;;;;;;;11.00;6.78;;;;;;;;;;5027537;28;20242;-72
2023/06/26 09:48:03;;;;;;;10.70;7.07;;;;;;;;;;5022001;28;20229;-73
2023/06/26 09:50:29;;;;;;;10.45;7.15;;;;;;;;;;5024178;28;20816;-77
2023/06/26 09:52:54;;;;;;;11.45;6.68;;;;;;;;;;5040011;28;20244;-78
2023/06/26 09:55:21;;;;;;;11.15;7.00;;;;;;;;;;5048198;28;20343;-78
2023/06/26 09:57:47;;;;;;;10.07;6.72;;;;;;;;;;5029544;28;20275;-77
2023/06/26 10:00:12;;;;;;;11.68;7.07;;;;;;;;;;5028430;28;20220;-77
2023/06/26 10:02:38;;;;;;;10.25;6.80;;;;;;;;;;5020975;28;20233;-75
2023/06/26 10:05:03;;;;;;;13.43;6.57;;;;;;;;;;5024758;28;20236;-75
2023/06/26 10:07:28;;;;;;;10.30;6.80;;;;;;;;;;5040410;28;20218;-80
2023/06/26 10:09:54;;;;;;;9.98;6.70;;;;;;;;;;5027981;28;20584;-79
2023/06/26 10:12:24;;;;;;;11.48;6.95;;;;;;;;;;5035608;28;20292;-79
2023/06/26 10:14:49;;;;;;;13.13;7.05;;;;;;;;;;5037975;28;20240;-77
2023/06/26 10:17:19;;;;;;;10.10;6.75;;;;;;;;;;5049162;28;20217;-77
2023/06/26 10:19:47;;;;;;;13.20;7.10;;;;;;;;;;5034475;28;20236;-78
2023/06/26 10:22:14;;;;;;;10.88;7.40;;;;;;;;;;5041065;28;20292;-79
2023/06/26 10:24:40;;;;;;;10.00;6.40;;;;;;;;;;5035647;28;20255;-78
2023/06/26 10:27:10;;;;;;;10.40;7.18;;;;;;;;;;5036296;28;20269;-75
2023/06/26 10:29:35;;;;;;;11.82;7.13;;;;;;;;;;5036950;28;20290;-77
2023/06/26 10:32:00;;;;;;;10.00;6.93;;;;;;;;;;5030470;28;20241;-77
2023/06/26 10:34:25;;;;;;;9.10;6.22;;;;;;;;;;5023218;28;20317;-78
2023/06/26 10:37:06;;;;;;;8.90;6.35;;;;;;;;;;5028280;28;20218;-77
2023/06/26 10:39:46;;;;;;;13.02;6.90;;;;;;;;;;5029100;28;20245;-76
2023/06/26 10:42:11;;;;;;;9.73;6.60;;;;;;;;;;5038127;28;20738;-77
2023/06/26 10:44:41;;;;;;;12.27;6.78;;;;;;;;;;5023630;28;20228;-77
2023/06/26 10:47:06;;;;;;;9.88;6.15;;;;;;;;;;5039525;28;20217;-78
2023/06/26 10:49:31;;;;;;;9.73;6.40;;;;;;;;;;5037973;28;20290;-79
2023/06/26 10:52:00;;;;;;;11.77;6.55;;;;;;;;;;5039776;28;20312;-76
2023/06/26 10:54:28;;;;;;;14.68;7.32;;;;;;;;;;5037577;28;21186;-76
2023/06/26 10:56:56;;;;;;;10.00;7.07;;;;;;;;;;5038190;28;20221;-78
2023/06/26 10:59:22;;;;;;;9.63;7.15;;;;;;;;;;5035304;28;20773;-77
2023/06/26 11:02:00;;;;;;;12.20;7.10;;;;;;;;;;5029726;28;20233;-76
2023/06/26 11:04:40;;;;;;;11.98;6.88;;;;;;;;;;5024783;28;20213;-74
2023/06/26 11:07:22;;;;;;;10.02;7.28;;;;;;;;;;5043019;28;20214;-77
2023/06/26 11:09:54;;;;;;;9.13;6.43;;;;;;;;;;5016881;28;20737;-77
2023/06/26 11:12:39;;;;;;;9.77;6.57;;;;;;;;;;5037339;28;20276;-77
2023/06/26 11:15:08;;;;;;;11.13;6.88;;;;;;;;;;5035985;28;20257;-77
2023/06/26 11:17:34;;;;;;;10.45;6.97;;;;;;;;;;5027149;28;20305;-77
2023/06/26 11:19:59;;;;;;;10.43;6.97;;;;;;;;;;5034748;28;20312;-77
2023/06/26 11:22:25;;;;;;;13.98;7.38;;;;;;;;;;5035811;28;20352;-76
2023/06/26 11:24:51;;;;;;;9.70;6.70;;;;;;;;;;5026175;28;20304;-76
2023/06/26 11:27:16;;;;;;;9.25;7.10;;;;;;;;;;5037429;28;20312;-76
2023/06/26 11:29:47;;;;;;;9.25;6.88;;;;;;;;;;5034004;28;20279;-79
2023/06/26 11:32:12;;;;;;;11.02;6.60;;;;;;;;;;5032509;28;20300;-76
2023/06/26 11:34:38;;;;;;;9.32;6.60;;;;;;;;;;5026125;28;20925;-76
2023/06/26 11:37:04;;;;;;;8.80;6.63;;;;;;;;;;5033807;28;20209;-77
2023/06/26 11:39:29;;;;;;;12.32;6.32;;;;;;;;;;5025448;28;20229;-76
2023/06/26 11:41:55;;;;;;;9.68;6.55;;;;;;;;;;5033299;28;20221;-77
2023/06/26 11:44:20;;;;;;;9.50;6.28;;;;;;;;;;5027150;28;20215;-76
2023/06/26 11:46:45;;;;;;;9.80;6.55;;;;;;;;;;5037957;28;20615;-77
2023/06/26 11:49:10;;;;;;;10.05;6.35;;;;;;;;;;5024638;28;20221;-77
2023/06/26 11:51:36;;;;;;;9.55;6.78;;;;;;;;;;5033883;28;20225;-77
2023/06/26 11:54:02;;;;;;;10.32;6.95;;;;;;;;;;5035103;28;20280;-76
2023/06/26 11:56:28;;;;;;;10.80;6.50;;;;;;;;;;5024653;28;20707;-77
2023/06/26 11:59:03;;;;;;;9.98;6.88;;;;;;;;;;5033120;28;20222;-75
2023/06/26 12:01:41;;;;;;;10.35;7.03;;;;;;;;;;5033121;28;20248;-77
2023/06/26 12:04:19;;;;;;;9.75;7.03;;;;;;;;;;5032747;28;20228;-78
2023/06/26 12:06:48;;;;;;;9.88;7.05;;;;;;;;;;5024234;28;20232;-76
2023/06/26 12:09:13;;;;;;;12.77;7.22;;;;;;;;;;5025965;28;20699;-76
2023/06/26 12:11:42;;;;;;;11.02;7.72;;;;;;;;;;5033417;28;20229;-76
2023/06/26 12:14:07;;;;;;;10.48;6.53;;;;;;;;;;5036034;28;20253;-78
2023/06/26 12:16:33;;;;;;;10.68;6.75;;;;;;;;;;5035485;28;20226;-78
2023/06/26 12:19:05;;;;;;;12.80;7.00;;;;;;;;;;5032055;28;20635;-78
2023/06/26 12:21:56;;;;;;;11.27;6.60;;;;;;;;;;5021957;28;20264;-77
2023/06/26 12:24:25;;;;;;;9.68;6.57;;;;;;;;;;5035213;28;20217;-77
2023/06/26 12:26:55;;;;;;;11.63;7.82;;;;;;;;;;5032081;28;20765;-78
2023/06/26 12:29:21;;;;;;;13.27;6.82;;;;;;;;;;5024214;28;20272;-76
2023/06/26 12:31:50;;;;;;;11.30;6.32;;;;;;;;;;5014611;28;20609;-75
2023/06/26 12:34:18;;;;;;;10.85;6.28;;;;;;;;;;5035373;28;20241;-77
2023/06/26 12:36:50;;;;;;;9.80;6.70;;;;;;;;;;5036332;28;20324;-78
2023/06/26 12:39:16;;;;;;;10.40;6.63;;;;;;;;;;5034054;28;20226;-77
2023/06/26 12:41:45;;;;;;;10.15;6.43;;;;;;;;;;5021562;28;20303;-72
2023/06/26 12:44:17;;;;;;;10.65;6.68;;;;;;;;;;5018377;28;20594;-73
2023/06/26 12:46:43;;;;;;;9.32;6.97;;;;;;;;;;5036024;28;20237;-71
2023/06/26 12:49:08;;;;;;;13.20;6.90;;;;;;;;;;5031237;28;20221;-71
2023/06/26 12:51:33;;;;;;;12.07;6.90;;;;;;;;;;5032374;28;20222;-71
2023/06/26 12:53:58;;;;;;;10.20;6.93;;;;;;;;;;5034264;28;20213;-71
2023/06/26 12:56:24;;;;;;;11.75;7.28;;;;;;;;;;5034827;28;20221;-72
2023/06/26 12:58:49;;;;;;;11.13;7.18;;;;;;;;;;5029309;28;20221;-73
2023/06/26 13:01:14;;;;;;;12.02;7.30;;;;;;;;;;5040593;28;20352;-72
2023/06/26 13:03:42;;;;;;;10.65;7.18;;;;;;;;;;5024876;28;20245;-73
2023/06/26 13:06:08;;;;;;;11.02;7.30;;;;;;;;;;5035423;28;20237;-72
2023/06/26 13:08:33;;;;;;;10.15;6.88;;;;;;;;;;5019380;28;20226;-77
2023/06/26 13:10:58;;;;;;;10.32;6.55;;;;;;;;;;5023933;28;20821;-78
2023/06/26 13:13:24;;;;;;;9.98;6.70;;;;;;;;;;5029979;28;20228;-76
2023/06/26 13:15:49;;;;;;;11.43;6.80;;;;;;;;;;5038761;28;20225;-78
2023/06/26 13:18:15;;;;;;;12.23;6.90;;;;;;;;;;5025101;28;20217;-74
2023/06/26 13:20:40;;;;;;;11.93;6.60;;;;;;;;;;5031249;28;20232;-76
2023/06/26 13:23:05;;;;;;;10.70;6.90;;;;;;;;;;5031785;28;20636;-76
2023/06/26 13:25:30;;;;;;;12.65;6.82;;;;;;;;;;5031999;28;20730;-77
2023/06/26 13:27:56;;;;;;;11.73;6.80;;;;;;;;;;5021181;28;20237;-76
2023/06/26 13:30:21;;;;;;;12.55;6.97;;;;;;;;;;5030351;28;20228;-77
2023/06/26 13:32:46;;;;;;;7.63;6.25;;;;;;;;;;5029183;28;20710;-78
2023/06/26 13:35:12;;;;;;;10.43;6.53;;;;;;;;;;5040066;28;20252;-76
2023/06/26 13:37:37;;;;;;;11.82;6.88;;;;;;;;;;5029300;28;20275;-75
2023/06/26 13:40:03;;;;;;;9.13;6.72;;;;;;;;;;5030204;28;20222;-78
2023/06/26 13:42:28;;;;;;;10.23;6.15;;;;;;;;;;5032083;28;20707;-75
2023/06/26 13:44:54;;;;;;;11.23;6.53;;;;;;;;;;5016598;28;20309;-76
2023/06/26 13:47:19;;;;;;;10.60;6.70;;;;;;;;;;5023887;28;20218;-77
2023/06/26 13:49:47;;;;;;;9.63;6.50;;;;;;;;;;5016564;28;20324;-75
2023/06/26 13:52:12;;;;;;;11.25;6.38;;;;;;;;;;5020558;28;20218;-81
2023/06/26 13:54:43;;;;;;;13.85;6.47;;;;;;;;;;5039254;28;20734;-79
2023/06/26 13:57:08;;;;;;;13.57;6.88;;;;;;;;;;5032399;28;20299;-76
2023/06/26 13:59:37;;;;;;;9.55;6.43;;;;;;;;;;5020471;28;20222;-77
2023/06/26 14:02:02;;;;;;;9.82;6.72;;;;;;;;;;5029080;28;20233;-72
2023/06/26 14:04:27;;;;;;;10.00;6.80;;;;;;;;;;5023187;28;20240;-73
2023/06/26 14:06:53;;;;;;;11.07;6.90;;;;;;;;;;5029824;28;20297;-73
2023/06/26 14:09:18;;;;;;;13.50;6.93;;;;;;;;;;5024303;28;20443;-72
2023/06/26 14:11:43;;;;;;;10.00;6.75;;;;;;;;;;5033886;28;20594;-73
2023/06/26 14:14:09;;;;;;;10.13;6.70;;;;;;;;;;5014846;28;20221;-71
2023/06/26 14:16:34;;;;;;;12.68;6.95;;;;;;;;;;5030601;28;20231;-73
2023/06/26 14:18:59;;;;;;;10.85;6.90;;;;;;;;;;5020710;28;20218;-71